sensor_id;sensor_type;location;lat;lon;timestamp;P1;durP1;ratioP1;P2;durP2;ratioP2
42714;SDS011;28351;51.480;5.706;2023-11-22T00:00:20;75.47;;;30.33;;
42714;SDS011;28351;51.480;5.706;2023-11-22T00:02:46;70.65;;;29.10;;
42714;SDS011;28351;51.480;5.706;2023-11-22T00:05:12;64.65;;;28.85;;
42714;SDS011;28351;51.480;5.706;2023-11-22T00:07:38;75.75;;;29.15;;
42714;SDS011;28351;51.480;5.706;2023-11-22T00:10:04;72.07;;;28.13;;
42714;SDS011;28351;51.480;5.706;2023-11-22T00:12:30;75.65;;;29.27;;
42714;SDS011;28351;51.480;5.706;2023-11-22T00:15:03;79.38;;;30.20;;
42714;SDS011;28351;51.480;5.706;2023-11-22T00:17:33;78.70;;;29.35;;
42714;SDS011;28351;51.480;5.706;2023-11-22T00:19:59;77.05;;;29.02;;
42714;SDS011;28351;51.480;5.706;2023-11-22T00:22:27;79.07;;;30.52;;
42714;SDS011;28351;51.480;5.706;2023-11-22T00:24:53;79.03;;;29.52;;
42714;SDS011;28351;51.480;5.706;2023-11-22T00:27:18;72.15;;;28.48;;
42714;SDS011;28351;51.480;5.706;2023-11-22T00:29:44;74.88;;;29.92;;
42714;SDS011;28351;51.480;5.706;2023-11-22T00:32:11;66.47;;;27.40;;
42714;SDS011;28351;51.480;5.706;2023-11-22T00:34:37;73.57;;;27.40;;
42714;SDS011;28351;51.480;5.706;2023-11-22T00:37:02;78.72;;;28.65;;
42714;SDS011;28351;51.480;5.706;2023-11-22T00:39:28;76.80;;;29.73;;
42714;SDS011;28351;51.480;5.706;2023-11-22T00:41:54;75.53;;;28.52;;
42714;SDS011;28351;51.480;5.706;2023-11-22T00:44:20;77.68;;;29.70;;
42714;SDS011;28351;51.480;5.706;2023-11-22T00:46:46;72.85;;;28.17;;
42714;SDS011;28351;51.480;5.706;2023-11-22T00:49:12;70.82;;;28.77;;
42714;SDS011;28351;51.480;5.706;2023-11-22T00:51:38;77.13;;;27.95;;
42714;SDS011;28351;51.480;5.706;2023-11-22T00:54:03;71.10;;;27.17;;
42714;SDS011;28351;51.480;5.706;2023-11-22T00:56:29;71.65;;;28.52;;
42714;SDS011;28351;51.480;5.706;2023-11-22T00:58:55;70.32;;;27.15;;
42714;SDS011;28351;51.480;5.706;2023-11-22T01:01:24;77.65;;;27.58;;
42714;SDS011;28351;51.480;5.706;2023-11-22T01:03:50;65.45;;;26.95;;
42714;SDS011;28351;51.480;5.706;2023-11-22T01:06:16;66.47;;;26.25;;
42714;SDS011;28351;51.480;5.706;2023-11-22T01:08:43;65.20;;;26.60;;
42714;SDS011;28351;51.480;5.706;2023-11-22T01:11:08;75.93;;;28.95;;
42714;SDS011;28351;51.480;5.706;2023-11-22T01:13:34;71.68;;;27.92;;
42714;SDS011;28351;51.480;5.706;2023-11-22T01:16:06;68.45;;;27.92;;
42714;SDS011;28351;51.480;5.706;2023-11-22T01:18:32;74.65;;;28.77;;
42714;SDS011;28351;51.480;5.706;2023-11-22T01:20:57;66.50;;;27.73;;
42714;SDS011;28351;51.480;5.706;2023-11-22T01:23:23;64.13;;;26.48;;
42714;SDS011;28351;51.480;5.706;2023-11-22T01:25:49;68.35;;;26.98;;
42714;SDS011;28351;51.480;5.706;2023-11-22T01:28:15;63.50;;;25.48;;
42714;SDS011;28351;51.480;5.706;2023-11-22T01:30:42;65.32;;;27.15;;
42714;SDS011;28351;51.480;5.706;2023-11-22T01:35:36;59.55;;;24.85;;
42714;SDS011;28351;51.480;5.706;2023-11-22T01:38:03;66.20;;;28.65;;
42714;SDS011;28351;51.480;5.706;2023-11-22T01:40:29;65.63;;;26.00;;
42714;SDS011;28351;51.480;5.706;2023-11-22T01:42:56;64.10;;;26.27;;
42714;SDS011;28351;51.480;5.706;2023-11-22T01:45:22;61.13;;;26.02;;
42714;SDS011;28351;51.480;5.706;2023-11-22T01:47:48;65.05;;;25.75;;
42714;SDS011;28351;51.480;5.706;2023-11-22T01:50:15;63.63;;;26.65;;
42714;SDS011;28351;51.480;5.706;2023-11-22T01:52:41;63.65;;;26.65;;
42714;SDS011;28351;51.480;5.706;2023-11-22T01:55:08;60.58;;;27.15;;
42714;SDS011;28351;51.480;5.706;2023-11-22T01:57:34;61.80;;;25.90;;
42714;SDS011;28351;51.480;5.706;2023-11-22T02:00:01;64.25;;;26.58;;
42714;SDS011;28351;51.480;5.706;2023-11-22T02:02:29;66.93;;;27.33;;
42714;SDS011;28351;51.480;5.706;2023-11-22T02:04:55;59.42;;;26.55;;
42714;SDS011;28351;51.480;5.706;2023-11-22T02:07:23;63.72;;;25.85;;
42714;SDS011;28351;51.480;5.706;2023-11-22T02:09:48;60.22;;;25.08;;
42714;SDS011;28351;51.480;5.706;2023-11-22T02:12:14;64.85;;;26.27;;
42714;SDS011;28351;51.480;5.706;2023-11-22T02:14:40;63.35;;;24.83;;
42714;SDS011;28351;51.480;5.706;2023-11-22T02:17:06;63.33;;;26.33;;
42714;SDS011;28351;51.480;5.706;2023-11-22T02:19:31;58.90;;;25.00;;
42714;SDS011;28351;51.480;5.706;2023-11-22T02:21:58;55.03;;;23.95;;
42714;SDS011;28351;51.480;5.706;2023-11-22T02:24:24;55.35;;;23.90;;
42714;SDS011;28351;51.480;5.706;2023-11-22T02:26:51;59.72;;;23.58;;
42714;SDS011;28351;51.480;5.706;2023-11-22T02:29:17;58.65;;;25.52;;
42714;SDS011;28351;51.480;5.706;2023-11-22T02:31:43;71.63;;;26.13;;
42714;SDS011;28351;51.480;5.706;2023-11-22T02:34:23;53.00;;;23.13;;
42714;SDS011;28351;51.480;5.706;2023-11-22T02:36:50;55.78;;;24.23;;
42714;SDS011;28351;51.480;5.706;2023-11-22T02:39:17;58.35;;;23.55;;
42714;SDS011;28351;51.480;5.706;2023-11-22T02:41:44;53.03;;;24.10;;
42714;SDS011;28351;51.480;5.706;2023-11-22T02:44:10;55.13;;;23.88;;
42714;SDS011;28351;51.480;5.706;2023-11-22T02:46:39;53.08;;;23.40;;
42714;SDS011;28351;51.480;5.706;2023-11-22T02:49:05;52.80;;;24.33;;
42714;SDS011;28351;51.480;5.706;2023-11-22T02:51:31;57.75;;;25.20;;
42714;SDS011;28351;51.480;5.706;2023-11-22T02:53:57;56.65;;;24.10;;
42714;SDS011;28351;51.480;5.706;2023-11-22T02:56:23;54.47;;;23.50;;
42714;SDS011;28351;51.480;5.706;2023-11-22T02:58:48;65.20;;;25.60;;
42714;SDS011;28351;51.480;5.706;2023-11-22T03:01:14;54.03;;;23.10;;
42714;SDS011;28351;51.480;5.706;2023-11-22T03:03:40;54.80;;;23.60;;
42714;SDS011;28351;51.480;5.706;2023-11-22T03:06:05;55.92;;;23.70;;
42714;SDS011;28351;51.480;5.706;2023-11-22T03:08:31;53.03;;;22.92;;
42714;SDS011;28351;51.480;5.706;2023-11-22T03:10:57;50.65;;;22.85;;
42714;SDS011;28351;51.480;5.706;2023-11-22T03:13:23;54.00;;;23.95;;
42714;SDS011;28351;51.480;5.706;2023-11-22T03:15:49;56.40;;;23.73;;
42714;SDS011;28351;51.480;5.706;2023-11-22T03:18:15;52.20;;;22.50;;
42714;SDS011;28351;51.480;5.706;2023-11-22T03:20:41;48.10;;;21.38;;
42714;SDS011;28351;51.480;5.706;2023-11-22T03:23:08;51.88;;;22.63;;
42714;SDS011;28351;51.480;5.706;2023-11-22T03:25:35;52.35;;;22.75;;
42714;SDS011;28351;51.480;5.706;2023-11-22T03:28:01;54.83;;;23.33;;
42714;SDS011;28351;51.480;5.706;2023-11-22T03:30:27;51.33;;;23.75;;
42714;SDS011;28351;51.480;5.706;2023-11-22T03:32:53;54.28;;;23.48;;
42714;SDS011;28351;51.480;5.706;2023-11-22T03:35:19;52.17;;;23.35;;
42714;SDS011;28351;51.480;5.706;2023-11-22T03:37:45;53.70;;;24.25;;
42714;SDS011;28351;51.480;5.706;2023-11-22T03:40:11;50.47;;;21.95;;
42714;SDS011;28351;51.480;5.706;2023-11-22T03:42:38;49.85;;;21.42;;
42714;SDS011;28351;51.480;5.706;2023-11-22T03:45:05;49.53;;;22.63;;
42714;SDS011;28351;51.480;5.706;2023-11-22T03:47:31;51.53;;;21.83;;
42714;SDS011;28351;51.480;5.706;2023-11-22T03:50:02;55.22;;;23.02;;
42714;SDS011;28351;51.480;5.706;2023-11-22T03:52:30;50.30;;;22.45;;
42714;SDS011;28351;51.480;5.706;2023-11-22T03:54:56;52.38;;;23.15;;
42714;SDS011;28351;51.480;5.706;2023-11-22T03:57:23;43.15;;;20.85;;
42714;SDS011;28351;51.480;5.706;2023-11-22T03:59:48;49.80;;;23.08;;
42714;SDS011;28351;51.480;5.706;2023-11-22T04:02:14;48.33;;;21.23;;
42714;SDS011;28351;51.480;5.706;2023-11-22T04:04:41;57.28;;;21.77;;
42714;SDS011;28351;51.480;5.706;2023-11-22T04:07:07;51.47;;;22.50;;
42714;SDS011;28351;51.480;5.706;2023-11-22T04:09:33;52.50;;;21.77;;
42714;SDS011;28351;51.480;5.706;2023-11-22T04:11:59;50.25;;;22.65;;
42714;SDS011;28351;51.480;5.706;2023-11-22T04:14:25;49.58;;;22.65;;
42714;SDS011;28351;51.480;5.706;2023-11-22T04:16:52;49.38;;;21.80;;
42714;SDS011;28351;51.480;5.706;2023-11-22T04:19:18;53.63;;;21.85;;
42714;SDS011;28351;51.480;5.706;2023-11-22T04:21:44;49.33;;;21.77;;
42714;SDS011;28351;51.480;5.706;2023-11-22T04:24:10;49.15;;;21.50;;
42714;SDS011;28351;51.480;5.706;2023-11-22T04:26:37;47.15;;;22.00;;
42714;SDS011;28351;51.480;5.706;2023-11-22T04:29:03;49.13;;;21.55;;
42714;SDS011;28351;51.480;5.706;2023-11-22T04:31:29;50.58;;;21.65;;
42714;SDS011;28351;51.480;5.706;2023-11-22T04:33:55;50.30;;;22.60;;
42714;SDS011;28351;51.480;5.706;2023-11-22T04:36:22;52.35;;;22.88;;
42714;SDS011;28351;51.480;5.706;2023-11-22T04:38:48;47.63;;;21.27;;
42714;SDS011;28351;51.480;5.706;2023-11-22T04:41:14;45.75;;;21.77;;
42714;SDS011;28351;51.480;5.706;2023-11-22T04:43:40;46.50;;;20.52;;
42714;SDS011;28351;51.480;5.706;2023-11-22T04:46:07;49.20;;;21.98;;
42714;SDS011;28351;51.480;5.706;2023-11-22T04:48:33;47.20;;;22.17;;
42714;SDS011;28351;51.480;5.706;2023-11-22T04:50:59;48.72;;;22.52;;
42714;SDS011;28351;51.480;5.706;2023-11-22T04:53:25;48.35;;;21.73;;
42714;SDS011;28351;51.480;5.706;2023-11-22T04:55:50;47.85;;;22.63;;
42714;SDS011;28351;51.480;5.706;2023-11-22T04:58:16;45.45;;;22.02;;
42714;SDS011;28351;51.480;5.706;2023-11-22T05:00:42;56.70;;;25.58;;
42714;SDS011;28351;51.480;5.706;2023-11-22T05:03:07;55.28;;;23.92;;
42714;SDS011;28351;51.480;5.706;2023-11-22T05:05:33;50.42;;;24.05;;
42714;SDS011;28351;51.480;5.706;2023-11-22T05:07:59;53.92;;;24.35;;
42714;SDS011;28351;51.480;5.706;2023-11-22T05:10:26;65.85;;;25.65;;
42714;SDS011;28351;51.480;5.706;2023-11-22T05:12:57;59.50;;;25.05;;
42714;SDS011;28351;51.480;5.706;2023-11-22T05:15:28;125.47;;;29.13;;
42714;SDS011;28351;51.480;5.706;2023-11-22T05:17:54;112.85;;;27.88;;
42714;SDS011;28351;51.480;5.706;2023-11-22T05:20:20;91.40;;;27.50;;
42714;SDS011;28351;51.480;5.706;2023-11-22T05:22:45;244.98;;;29.90;;
42714;SDS011;28351;51.480;5.706;2023-11-22T05:25:12;139.90;;;29.50;;
42714;SDS011;28351;51.480;5.706;2023-11-22T05:27:37;213.73;;;31.20;;
42714;SDS011;28351;51.480;5.706;2023-11-22T05:30:03;167.13;;;28.92;;
42714;SDS011;28351;51.480;5.706;2023-11-22T05:32:29;109.43;;;30.00;;
42714;SDS011;28351;51.480;5.706;2023-11-22T05:34:56;156.77;;;29.63;;
42714;SDS011;28351;51.480;5.706;2023-11-22T05:37:24;141.70;;;31.58;;
42714;SDS011;28351;51.480;5.706;2023-11-22T05:39:50;157.48;;;31.58;;
42714;SDS011;28351;51.480;5.706;2023-11-22T05:42:16;111.55;;;30.20;;
42714;SDS011;28351;51.480;5.706;2023-11-22T05:44:43;177.23;;;31.48;;
42714;SDS011;28351;51.480;5.706;2023-11-22T05:47:15;133.27;;;29.88;;
42714;SDS011;28351;51.480;5.706;2023-11-22T05:49:43;192.95;;;31.67;;
42714;SDS011;28351;51.480;5.706;2023-11-22T05:52:09;145.20;;;28.42;;
42714;SDS011;28351;51.480;5.706;2023-11-22T05:54:36;138.63;;;29.90;;
42714;SDS011;28351;51.480;5.706;2023-11-22T05:57:02;180.50;;;32.27;;
42714;SDS011;28351;51.480;5.706;2023-11-22T05:59:40;108.93;;;27.77;;
42714;SDS011;28351;51.480;5.706;2023-11-22T06:02:13;85.72;;;27.45;;
42714;SDS011;28351;51.480;5.706;2023-11-22T06:04:38;139.88;;;28.88;;
42714;SDS011;28351;51.480;5.706;2023-11-22T06:09:39;163.07;;;31.73;;
42714;SDS011;28351;51.480;5.706;2023-11-22T06:12:05;130.30;;;28.52;;
42714;SDS011;28351;51.480;5.706;2023-11-22T06:14:31;111.35;;;29.98;;
42714;SDS011;28351;51.480;5.706;2023-11-22T06:17:06;214.65;;;29.75;;
42714;SDS011;28351;51.480;5.706;2023-11-22T06:19:40;139.00;;;28.70;;
42714;SDS011;28351;51.480;5.706;2023-11-22T06:22:08;231.65;;;31.60;;
42714;SDS011;28351;51.480;5.706;2023-11-22T06:24:36;237.95;;;32.75;;
42714;SDS011;28351;51.480;5.706;2023-11-22T06:27:02;255.77;;;33.20;;
42714;SDS011;28351;51.480;5.706;2023-11-22T06:29:28;127.70;;;31.48;;
42714;SDS011;28351;51.480;5.706;2023-11-22T06:31:54;160.52;;;31.27;;
42714;SDS011;28351;51.480;5.706;2023-11-22T06:34:20;153.18;;;30.38;;
42714;SDS011;28351;51.480;5.706;2023-11-22T06:36:45;102.90;;;30.35;;
42714;SDS011;28351;51.480;5.706;2023-11-22T06:39:11;159.63;;;31.10;;
42714;SDS011;28351;51.480;5.706;2023-11-22T06:41:41;163.02;;;31.17;;
42714;SDS011;28351;51.480;5.706;2023-11-22T06:46:32;222.27;;;34.08;;
42714;SDS011;28351;51.480;5.706;2023-11-22T06:48:58;271.17;;;34.38;;
42714;SDS011;28351;51.480;5.706;2023-11-22T06:51:24;191.65;;;33.13;;
42714;SDS011;28351;51.480;5.706;2023-11-22T06:53:50;133.45;;;30.20;;
42714;SDS011;28351;51.480;5.706;2023-11-22T06:56:17;171.70;;;32.42;;
42714;SDS011;28351;51.480;5.706;2023-11-22T06:58:43;166.80;;;31.40;;
42714;SDS011;28351;51.480;5.706;2023-11-22T07:01:08;182.38;;;32.17;;
42714;SDS011;28351;51.480;5.706;2023-11-22T07:03:35;195.80;;;34.50;;
42714;SDS011;28351;51.480;5.706;2023-11-22T07:06:02;206.88;;;32.03;;
42714;SDS011;28351;51.480;5.706;2023-11-22T07:08:29;277.60;;;36.33;;
42714;SDS011;28351;51.480;5.706;2023-11-22T07:10:55;229.98;;;35.83;;
42714;SDS011;28351;51.480;5.706;2023-11-22T07:13:21;244.50;;;33.78;;
42714;SDS011;28351;51.480;5.706;2023-11-22T07:15:47;260.98;;;35.20;;
42714;SDS011;28351;51.480;5.706;2023-11-22T07:18:13;153.40;;;32.03;;
42714;SDS011;28351;51.480;5.706;2023-11-22T07:20:39;218.40;;;33.95;;
42714;SDS011;28351;51.480;5.706;2023-11-22T07:23:05;148.55;;;32.03;;
42714;SDS011;28351;51.480;5.706;2023-11-22T07:25:31;194.95;;;32.58;;
42714;SDS011;28351;51.480;5.706;2023-11-22T07:27:56;170.27;;;31.30;;
42714;SDS011;28351;51.480;5.706;2023-11-22T07:30:24;143.80;;;31.38;;
42714;SDS011;28351;51.480;5.706;2023-11-22T07:32:52;125.60;;;31.30;;
42714;SDS011;28351;51.480;5.706;2023-11-22T07:35:18;119.47;;;29.35;;
42714;SDS011;28351;51.480;5.706;2023-11-22T07:37:47;144.77;;;31.00;;
42714;SDS011;28351;51.480;5.706;2023-11-22T07:40:13;124.50;;;29.90;;
42714;SDS011;28351;51.480;5.706;2023-11-22T07:42:42;162.35;;;30.50;;
42714;SDS011;28351;51.480;5.706;2023-11-22T07:45:09;159.77;;;30.75;;
42714;SDS011;28351;51.480;5.706;2023-11-22T07:47:44;114.65;;;29.92;;
42714;SDS011;28351;51.480;5.706;2023-11-22T07:50:20;101.53;;;31.55;;
42714;SDS011;28351;51.480;5.706;2023-11-22T07:52:48;76.35;;;29.83;;
42714;SDS011;28351;51.480;5.706;2023-11-22T07:55:13;109.80;;;29.35;;
42714;SDS011;28351;51.480;5.706;2023-11-22T07:57:40;106.18;;;32.95;;
42714;SDS011;28351;51.480;5.706;2023-11-22T08:02:48;87.78;;;31.17;;
42714;SDS011;28351;51.480;5.706;2023-11-22T08:05:14;157.90;;;34.60;;
42714;SDS011;28351;51.480;5.706;2023-11-22T08:07:48;144.07;;;34.08;;
42714;SDS011;28351;51.480;5.706;2023-11-22T08:10:14;158.88;;;33.78;;
42714;SDS011;28351;51.480;5.706;2023-11-22T08:12:44;136.93;;;32.97;;
42714;SDS011;28351;51.480;5.706;2023-11-22T08:15:10;114.30;;;33.50;;
42714;SDS011;28351;51.480;5.706;2023-11-22T08:17:39;104.50;;;34.03;;
42714;SDS011;28351;51.480;5.706;2023-11-22T08:20:06;115.63;;;34.35;;
42714;SDS011;28351;51.480;5.706;2023-11-22T08:22:36;123.10;;;36.35;;
42714;SDS011;28351;51.480;5.706;2023-11-22T08:25:04;112.28;;;35.40;;
42714;SDS011;28351;51.480;5.706;2023-11-22T08:27:30;105.60;;;36.55;;
42714;SDS011;28351;51.480;5.706;2023-11-22T08:30:06;113.05;;;37.50;;
42714;SDS011;28351;51.480;5.706;2023-11-22T08:32:34;106.63;;;36.90;;
42714;SDS011;28351;51.480;5.706;2023-11-22T08:35:04;107.18;;;36.65;;
42714;SDS011;28351;51.480;5.706;2023-11-22T08:37:32;112.15;;;38.97;;
42714;SDS011;28351;51.480;5.706;2023-11-22T08:40:00;110.95;;;39.60;;
42714;SDS011;28351;51.480;5.706;2023-11-22T08:42:26;108.38;;;38.55;;
42714;SDS011;28351;51.480;5.706;2023-11-22T08:44:52;103.53;;;40.08;;
42714;SDS011;28351;51.480;5.706;2023-11-22T08:47:18;102.03;;;38.38;;
42714;SDS011;28351;51.480;5.706;2023-11-22T08:49:44;108.78;;;38.58;;
42714;SDS011;28351;51.480;5.706;2023-11-22T08:52:10;109.65;;;39.00;;
42714;SDS011;28351;51.480;5.706;2023-11-22T08:54:37;105.88;;;38.38;;
42714;SDS011;28351;51.480;5.706;2023-11-22T08:57:02;111.03;;;39.63;;
42714;SDS011;28351;51.480;5.706;2023-11-22T08:59:28;105.70;;;37.67;;
42714;SDS011;28351;51.480;5.706;2023-11-22T09:01:54;100.95;;;38.63;;
42714;SDS011;28351;51.480;5.706;2023-11-22T09:04:19;109.28;;;40.05;;
42714;SDS011;28351;51.480;5.706;2023-11-22T09:06:46;111.15;;;40.35;;
42714;SDS011;28351;51.480;5.706;2023-11-22T09:09:12;109.50;;;39.55;;
42714;SDS011;28351;51.480;5.706;2023-11-22T09:11:40;102.63;;;36.97;;
42714;SDS011;28351;51.480;5.706;2023-11-22T09:14:06;99.82;;;36.53;;
42714;SDS011;28351;51.480;5.706;2023-11-22T09:19:04;95.85;;;36.13;;
42714;SDS011;28351;51.480;5.706;2023-11-22T09:21:33;165.52;;;40.17;;
42714;SDS011;28351;51.480;5.706;2023-11-22T09:24:00;103.40;;;36.47;;
42714;SDS011;28351;51.480;5.706;2023-11-22T09:26:26;90.05;;;37.28;;
42714;SDS011;28351;51.480;5.706;2023-11-22T09:28:51;87.95;;;37.17;;
42714;SDS011;28351;51.480;5.706;2023-11-22T09:31:18;88.18;;;35.97;;
42714;SDS011;28351;51.480;5.706;2023-11-22T09:33:45;87.88;;;34.95;;
42714;SDS011;28351;51.480;5.706;2023-11-22T09:36:11;82.22;;;34.63;;
42714;SDS011;28351;51.480;5.706;2023-11-22T09:38:37;75.57;;;35.28;;
42714;SDS011;28351;51.480;5.706;2023-11-22T09:41:03;83.28;;;35.28;;
42714;SDS011;28351;51.480;5.706;2023-11-22T09:43:29;77.93;;;33.95;;
42714;SDS011;28351;51.480;5.706;2023-11-22T09:45:57;84.72;;;37.47;;
42714;SDS011;28351;51.480;5.706;2023-11-22T09:48:25;79.68;;;35.45;;
42714;SDS011;28351;51.480;5.706;2023-11-22T09:51:05;78.82;;;34.58;;
42714;SDS011;28351;51.480;5.706;2023-11-22T09:53:47;86.00;;;35.55;;
42714;SDS011;28351;51.480;5.706;2023-11-22T09:56:21;83.88;;;36.08;;
42714;SDS011;28351;51.480;5.706;2023-11-22T09:58:51;82.40;;;36.63;;
42714;SDS011;28351;51.480;5.706;2023-11-22T10:01:20;82.72;;;35.92;;
42714;SDS011;28351;51.480;5.706;2023-11-22T10:03:47;81.25;;;37.25;;
42714;SDS011;28351;51.480;5.706;2023-11-22T10:06:14;80.00;;;36.90;;
42714;SDS011;28351;51.480;5.706;2023-11-22T10:08:40;78.82;;;34.72;;
42714;SDS011;28351;51.480;5.706;2023-11-22T10:11:06;73.95;;;34.97;;
42714;SDS011;28351;51.480;5.706;2023-11-22T10:13:32;76.45;;;34.40;;
42714;SDS011;28351;51.480;5.706;2023-11-22T10:16:19;71.55;;;32.70;;
42714;SDS011;28351;51.480;5.706;2023-11-22T10:18:45;66.43;;;32.65;;
42714;SDS011;28351;51.480;5.706;2023-11-22T10:21:22;69.43;;;31.20;;
42714;SDS011;28351;51.480;5.706;2023-11-22T10:23:50;74.10;;;34.10;;
42714;SDS011;28351;51.480;5.706;2023-11-22T10:26:17;71.10;;;33.35;;
42714;SDS011;28351;51.480;5.706;2023-11-22T10:28:43;69.80;;;32.65;;
42714;SDS011;28351;51.480;5.706;2023-11-22T10:31:09;66.18;;;31.85;;
42714;SDS011;28351;51.480;5.706;2023-11-22T10:33:38;67.25;;;32.35;;
42714;SDS011;28351;51.480;5.706;2023-11-22T10:36:07;70.78;;;34.20;;
42714;SDS011;28351;51.480;5.706;2023-11-22T10:38:33;76.47;;;33.58;;
42714;SDS011;28351;51.480;5.706;2023-11-22T10:40:59;77.70;;;36.60;;
42714;SDS011;28351;51.480;5.706;2023-11-22T10:43:28;81.30;;;37.03;;
42714;SDS011;28351;51.480;5.706;2023-11-22T10:45:57;76.97;;;35.88;;
42714;SDS011;28351;51.480;5.706;2023-11-22T10:48:24;73.95;;;35.22;;
42714;SDS011;28351;51.480;5.706;2023-11-22T10:50:50;76.35;;;35.05;;
42714;SDS011;28351;51.480;5.706;2023-11-22T10:53:24;70.55;;;33.65;;
42714;SDS011;28351;51.480;5.706;2023-11-22T10:56:07;68.65;;;34.28;;
42714;SDS011;28351;51.480;5.706;2023-11-22T10:58:37;70.47;;;34.47;;
42714;SDS011;28351;51.480;5.706;2023-11-22T11:01:15;70.95;;;33.17;;
42714;SDS011;28351;51.480;5.706;2023-11-22T11:03:43;74.32;;;35.08;;
42714;SDS011;28351;51.480;5.706;2023-11-22T11:06:16;72.97;;;35.55;;
42714;SDS011;28351;51.480;5.706;2023-11-22T11:08:46;72.85;;;35.17;;
42714;SDS011;28351;51.480;5.706;2023-11-22T11:11:13;74.18;;;35.75;;
42714;SDS011;28351;51.480;5.706;2023-11-22T11:13:40;68.35;;;33.28;;
42714;SDS011;28351;51.480;5.706;2023-11-22T11:16:07;66.97;;;31.17;;
42714;SDS011;28351;51.480;5.706;2023-11-22T11:18:33;70.03;;;31.80;;
42714;SDS011;28351;51.480;5.706;2023-11-22T11:21:03;63.08;;;30.63;;
42714;SDS011;28351;51.480;5.706;2023-11-22T11:23:33;66.15;;;31.45;;
42714;SDS011;28351;51.480;5.706;2023-11-22T11:25:59;70.43;;;31.90;;
42714;SDS011;28351;51.480;5.706;2023-11-22T11:28:42;67.65;;;31.27;;
42714;SDS011;28351;51.480;5.706;2023-11-22T11:31:09;69.70;;;34.17;;
42714;SDS011;28351;51.480;5.706;2023-11-22T11:33:52;66.22;;;32.13;;
42714;SDS011;28351;51.480;5.706;2023-11-22T11:36:30;67.57;;;32.78;;
42714;SDS011;28351;51.480;5.706;2023-11-22T11:39:12;68.07;;;31.95;;
42714;SDS011;28351;51.480;5.706;2023-11-22T11:41:42;72.88;;;33.63;;
42714;SDS011;28351;51.480;5.706;2023-11-22T11:44:08;64.25;;;31.98;;
42714;SDS011;28351;51.480;5.706;2023-11-22T11:46:35;72.72;;;32.53;;
42714;SDS011;28351;51.480;5.706;2023-11-22T11:49:03;71.97;;;33.47;;
42714;SDS011;28351;51.480;5.706;2023-11-22T11:51:35;71.72;;;33.83;;
42714;SDS011;28351;51.480;5.706;2023-11-22T11:54:02;72.28;;;34.63;;
42714;SDS011;28351;51.480;5.706;2023-11-22T11:56:29;70.13;;;34.08;;
42714;SDS011;28351;51.480;5.706;2023-11-22T11:58:56;71.18;;;34.30;;
42714;SDS011;28351;51.480;5.706;2023-11-22T12:01:24;68.45;;;33.53;;
42714;SDS011;28351;51.480;5.706;2023-11-22T12:03:52;67.47;;;33.08;;
42714;SDS011;28351;51.480;5.706;2023-11-22T12:06:18;66.13;;;31.70;;
42714;SDS011;28351;51.480;5.706;2023-11-22T12:08:44;70.70;;;32.35;;
42714;SDS011;28351;51.480;5.706;2023-11-22T12:11:12;69.75;;;32.75;;
42714;SDS011;28351;51.480;5.706;2023-11-22T12:13:45;72.47;;;33.95;;
42714;SDS011;28351;51.480;5.706;2023-11-22T12:16:15;75.63;;;34.70;;
42714;SDS011;28351;51.480;5.706;2023-11-22T12:18:49;73.38;;;33.47;;
42714;SDS011;28351;51.480;5.706;2023-11-22T12:21:16;72.53;;;32.33;;
42714;SDS011;28351;51.480;5.706;2023-11-22T12:23:43;73.50;;;31.60;;
42714;SDS011;28351;51.480;5.706;2023-11-22T12:26:17;68.15;;;31.42;;
42714;SDS011;28351;51.480;5.706;2023-11-22T12:28:45;73.05;;;31.90;;
42714;SDS011;28351;51.480;5.706;2023-11-22T12:31:13;73.47;;;32.75;;
42714;SDS011;28351;51.480;5.706;2023-11-22T12:33:40;71.07;;;33.08;;
42714;SDS011;28351;51.480;5.706;2023-11-22T12:36:07;69.07;;;31.85;;
42714;SDS011;28351;51.480;5.706;2023-11-22T12:38:43;73.32;;;33.75;;
42714;SDS011;28351;51.480;5.706;2023-11-22T12:41:08;75.38;;;34.80;;
42714;SDS011;28351;51.480;5.706;2023-11-22T12:43:35;64.40;;;31.95;;
42714;SDS011;28351;51.480;5.706;2023-11-22T12:46:04;65.28;;;31.65;;
42714;SDS011;28351;51.480;5.706;2023-11-22T12:48:32;65.28;;;29.85;;
42714;SDS011;28351;51.480;5.706;2023-11-22T12:50:58;62.28;;;31.20;;
42714;SDS011;28351;51.480;5.706;2023-11-22T12:53:26;61.00;;;30.58;;
42714;SDS011;28351;51.480;5.706;2023-11-22T12:55:53;63.00;;;31.75;;
42714;SDS011;28351;51.480;5.706;2023-11-22T12:58:20;63.75;;;32.05;;
42714;SDS011;28351;51.480;5.706;2023-11-22T13:00:51;66.90;;;32.45;;
42714;SDS011;28351;51.480;5.706;2023-11-22T13:03:23;63.03;;;31.17;;
42714;SDS011;28351;51.480;5.706;2023-11-22T13:05:49;58.25;;;30.02;;
42714;SDS011;28351;51.480;5.706;2023-11-22T13:08:17;56.50;;;29.08;;
42714;SDS011;28351;51.480;5.706;2023-11-22T13:10:43;61.35;;;29.85;;
42714;SDS011;28351;51.480;5.706;2023-11-22T13:13:12;58.42;;;29.08;;
42714;SDS011;28351;51.480;5.706;2023-11-22T13:15:39;59.40;;;30.02;;
42714;SDS011;28351;51.480;5.706;2023-11-22T13:18:05;62.95;;;30.58;;
42714;SDS011;28351;51.480;5.706;2023-11-22T13:20:33;62.58;;;30.70;;
42714;SDS011;28351;51.480;5.706;2023-11-22T13:22:59;66.57;;;30.95;;
42714;SDS011;28351;51.480;5.706;2023-11-22T13:27:54;64.40;;;29.85;;
42714;SDS011;28351;51.480;5.706;2023-11-22T13:30:21;63.53;;;30.58;;
42714;SDS011;28351;51.480;5.706;2023-11-22T13:32:51;59.80;;;29.08;;
42714;SDS011;28351;51.480;5.706;2023-11-22T13:35:19;62.05;;;29.77;;
42714;SDS011;28351;51.480;5.706;2023-11-22T13:37:45;59.58;;;28.65;;
42714;SDS011;28351;51.480;5.706;2023-11-22T13:40:13;58.88;;;28.90;;
42714;SDS011;28351;51.480;5.706;2023-11-22T13:42:46;61.53;;;28.90;;
42714;SDS011;28351;51.480;5.706;2023-11-22T13:47:48;59.05;;;26.00;;
42714;SDS011;28351;51.480;5.706;2023-11-22T13:50:20;56.85;;;27.20;;
42714;SDS011;28351;51.480;5.706;2023-11-22T13:52:51;57.60;;;28.33;;
42714;SDS011;28351;51.480;5.706;2023-11-22T13:55:18;59.67;;;27.65;;
42714;SDS011;28351;51.480;5.706;2023-11-22T13:57:50;62.15;;;29.17;;
42714;SDS011;28351;51.480;5.706;2023-11-22T14:00:20;58.45;;;27.33;;
42714;SDS011;28351;51.480;5.706;2023-11-22T14:02:49;68.65;;;29.52;;
42714;SDS011;28351;51.480;5.706;2023-11-22T14:05:16;59.15;;;26.60;;
42714;SDS011;28351;51.480;5.706;2023-11-22T14:07:43;65.18;;;26.77;;
42714;SDS011;28351;51.480;5.706;2023-11-22T14:10:09;58.45;;;26.98;;
42714;SDS011;28351;51.480;5.706;2023-11-22T14:12:36;55.65;;;26.23;;
42714;SDS011;28351;51.480;5.706;2023-11-22T14:15:02;62.35;;;27.35;;
42714;SDS011;28351;51.480;5.706;2023-11-22T14:17:32;56.75;;;25.40;;
42714;SDS011;28351;51.480;5.706;2023-11-22T14:19:57;55.42;;;26.15;;
42714;SDS011;28351;51.480;5.706;2023-11-22T14:22:24;57.17;;;26.55;;
42714;SDS011;28351;51.480;5.706;2023-11-22T14:24:50;57.38;;;25.45;;
42714;SDS011;28351;51.480;5.706;2023-11-22T14:27:22;59.25;;;24.77;;
42714;SDS011;28351;51.480;5.706;2023-11-22T14:29:47;56.60;;;23.95;;
42714;SDS011;28351;51.480;5.706;2023-11-22T14:32:18;55.55;;;24.65;;
42714;SDS011;28351;51.480;5.706;2023-11-22T14:34:46;51.35;;;23.77;;
42714;SDS011;28351;51.480;5.706;2023-11-22T14:37:12;57.88;;;25.67;;